Terminal Aerodrome Forecast
Issued by NWS

Home | Current Version | Previous Version | Text Only | Print | Product List | Glossary On
Versions: 1 2 3 4 5 6 7 8 9 10 11 12 13
000
FTUS45 KABQ 211100
TAFFMN
TAF
KFMN 211124Z 2112/2212 VRB05KT P6SM FEW120
     FM211900 27011KT P6SM FEW110 BKN200
     FM220000 28008KT P6SM SCT100 BKN200
     FM220300 25010KT P6SM VCSH BKN100=

USA.gov is the U.S. government's official web portal to all federal, state and local government web resources and services.